createdAt,value
2023-02-12T00:01:58.576Z,99426.53
2023-02-12T00:04:25.185Z,99437.91
2023-02-12T00:06:51.784Z,99442.84
2023-02-12T00:09:18.365Z,99438.84
2023-02-12T00:11:44.919Z,99428.00
2023-02-12T00:14:11.526Z,99423.38
2023-02-12T00:16:38.347Z,99423.69
2023-02-12T00:19:04.727Z,99432.00
2023-02-12T00:21:31.353Z,99436.78
2023-02-12T00:23:58.137Z,99432.38
2023-02-12T00:26:25.071Z,99433.53
2023-02-12T00:28:51.683Z,99430.84
2023-02-12T00:31:25.187Z,99431.16
2023-02-12T00:33:51.984Z,99421.78
2023-02-12T00:36:21.088Z,99421.47
2023-02-12T00:38:49.557Z,99427.38
2023-02-12T00:41:16.318Z,99421.47
2023-02-12T00:43:42.964Z,99413.53
2023-02-12T00:46:10.166Z,99422.97
2023-02-12T00:48:37.349Z,99423.72
2023-02-12T00:51:04.224Z,99425.97
2023-02-12T00:53:30.860Z,99415.97
2023-02-12T00:55:57.992Z,99421.84
2023-02-12T00:58:24.429Z,99439.53
2023-02-12T01:00:51.172Z,99430.16
2023-02-12T01:03:17.961Z,99421.03
2023-02-12T01:05:44.637Z,99429.03
2023-02-12T01:08:13.661Z,99428.84
2023-02-12T01:10:41.014Z,99435.72
2023-02-12T01:13:07.834Z,99429.81
2023-02-12T01:15:34.232Z,99429.97
2023-02-12T01:18:00.800Z,99431.38
2023-02-12T01:20:27.489Z,99433.31
2023-02-12T01:22:54.182Z,99426.91
2023-02-12T01:25:20.944Z,99436.44
2023-02-12T01:27:48.403Z,99423.72
2023-02-12T01:30:15.799Z,99420.56
2023-02-12T01:32:43.126Z,99417.22
2023-02-12T01:35:10.741Z,99426.75
2023-02-12T01:37:38.218Z,99423.72
2023-02-12T01:40:08.159Z,99422.41
2023-02-12T01:42:34.842Z,99420.38
2023-02-12T01:45:13.348Z,99426.59
2023-02-12T01:47:44.793Z,99425.59
2023-02-12T01:50:16.113Z,99429.41
2023-02-12T01:52:48.349Z,99430.06
2023-02-12T01:55:15.830Z,99430.53
2023-02-12T01:57:46.160Z,99425.78
2023-02-12T02:00:20.266Z,99431.66
2023-02-12T02:02:51.417Z,99433.91
2023-02-12T02:05:25.059Z,99433.75
2023-02-12T02:07:53.581Z,99429.81
2023-02-12T02:10:20.371Z,99427.03
2023-02-12T02:13:05.393Z,99433.91
2023-02-12T02:15:33.468Z,99426.47
2023-02-12T02:18:11.936Z,99416.72
2023-02-12T02:20:54.658Z,99416.88
2023-02-12T02:23:59.352Z,99428.50
2023-02-12T02:26:41.178Z,99427.25
2023-02-12T02:29:17.968Z,99428.19
2023-02-12T02:32:03.158Z,99432.97
2023-02-12T02:35:03.702Z,99436.50
2023-02-12T02:37:40.941Z,99441.44
2023-02-12T02:40:24.879Z,99434.25
2023-02-12T02:43:06.528Z,99437.16
2023-02-12T02:45:48.234Z,99433.22
2023-02-12T02:48:21.960Z,99438.94
2023-02-12T02:50:56.161Z,99430.06
2023-02-12T02:53:31.670Z,99438.78
2023-02-12T02:56:02.083Z,99435.44
2023-02-12T02:58:36.424Z,99438.03
2023-02-12T03:01:06.186Z,99440.25
2023-02-12T03:03:38.118Z,99435.50
2023-02-12T03:06:10.417Z,99430.69
2023-02-12T03:08:43.897Z,99435.47
2023-02-12T03:11:18.317Z,99429.91
2023-02-12T03:14:03.794Z,99440.72
2023-02-12T03:17:00.003Z,99443.63
2023-02-12T03:19:30.810Z,99446.81
2023-02-12T03:22:03.446Z,99439.63
2023-02-12T03:24:36.399Z,99440.91
2023-02-12T03:27:11.339Z,99450.28
2023-02-12T03:29:38.179Z,99453.47
2023-02-12T03:32:10.125Z,99452.00
2023-02-12T03:34:50.544Z,99452.03
2023-02-12T03:37:33.968Z,99455.56
2023-02-12T03:40:20.738Z,99459.41
2023-02-12T03:42:58.003Z,99466.41
2023-02-12T03:45:47.523Z,99461.47
2023-02-12T03:48:16.999Z,99461.28
2023-02-12T03:50:54.025Z,99458.28
2023-02-12T03:53:21.110Z,99468.81
2023-02-12T03:55:52.688Z,99470.38
2023-02-12T03:58:24.858Z,99468.66
2023-02-12T04:00:52.118Z,99479.63
2023-02-12T04:03:18.981Z,99478.19
2023-02-12T04:05:45.590Z,99477.25
2023-02-12T04:08:13.225Z,99481.69
2023-02-12T04:11:01.502Z,99493.16
2023-02-12T04:13:50.253Z,99492.38
2023-02-12T04:16:29.872Z,99479.03
2023-02-12T04:18:57.006Z,99483.63
2023-02-12T04:22:03.350Z,99491.59
2023-02-12T04:24:38.945Z,99492.06
2023-02-12T04:27:17.260Z,99484.09
2023-02-12T04:29:54.791Z,99490.78
2023-02-12T04:32:37.900Z,99488.88
2023-02-12T04:35:22.799Z,99489.38
2023-02-12T04:37:52.183Z,99498.59
2023-02-12T04:40:20.561Z,99496.84
2023-02-12T04:42:49.488Z,99500.97
2023-02-12T04:45:29.913Z,99497.59
2023-02-12T04:47:56.857Z,99503.53
2023-02-12T04:50:23.618Z,99496.34
2023-02-12T04:52:50.039Z,99503.06
2023-02-12T04:55:17.048Z,99504.78
2023-02-12T04:57:43.667Z,99500.97
2023-02-12T05:00:13.546Z,99504.31
2023-02-12T05:02:40.287Z,99502.09
2023-02-12T05:05:07.319Z,99508.16
2023-02-12T05:07:33.916Z,99509.69
2023-02-12T05:10:00.600Z,99513.06
2023-02-12T05:12:27.165Z,99509.25
2023-02-12T05:14:53.556Z,99513.72
2023-02-12T05:17:22.976Z,99512.44
2023-02-12T05:19:49.589Z,99510.50
2023-02-12T05:22:16.041Z,99507.63
2023-02-12T05:24:42.770Z,99515.56
2023-02-12T05:27:09.468Z,99510.16
2023-02-12T05:29:36.836Z,99508.09
2023-02-12T05:32:04.167Z,99521.00
2023-02-12T05:34:30.861Z,99525.00
2023-02-12T05:36:57.413Z,99525.00
2023-02-12T05:39:23.757Z,99523.41
2023-02-12T05:41:50.330Z,99523.88
2023-02-12T05:44:16.950Z,99533.78
2023-02-12T05:46:43.893Z,99528.50
2023-02-12T05:49:11.129Z,99533.78
2023-02-12T05:51:37.994Z,99532.00
2023-02-12T05:54:07.508Z,99536.78
2023-02-12T05:56:42.335Z,99543.63
2023-02-12T05:59:15.169Z,99539.81
2023-02-12T06:01:43.646Z,99534.06
2023-02-12T06:04:19.156Z,99537.75
2023-02-12T06:06:46.419Z,99549.72
2023-02-12T06:09:14.187Z,99543.63
2023-02-12T06:11:41.603Z,99542.84
2023-02-12T06:14:11.304Z,99538.88
2023-02-12T06:16:38.085Z,99550.50
2023-02-12T06:19:09.777Z,99559.88
2023-02-12T06:21:36.121Z,99558.91
2023-02-12T06:24:02.733Z,99562.94
2023-02-12T06:26:29.346Z,99560.03
2023-02-12T06:28:55.968Z,99561.63
2023-02-12T06:31:25.186Z,99562.41
2023-02-12T06:33:52.451Z,99555.75
2023-02-12T06:36:20.163Z,99568.03
2023-02-12T06:38:47.136Z,99568.03
2023-02-12T06:41:13.861Z,99560.38
2023-02-12T06:43:40.705Z,99566.44
2023-02-12T06:46:08.644Z,99570.59
2023-02-12T06:48:35.472Z,99570.72
2023-02-12T06:51:11.872Z,99565.78
2023-02-12T06:53:38.526Z,99562.28
2023-02-12T06:56:07.040Z,99563.53
2023-02-12T06:58:33.685Z,99565.00
2023-02-12T07:01:18.152Z,99562.94
2023-02-12T07:03:48.612Z,99561.81
2023-02-12T07:06:15.215Z,99567.69
2023-02-12T07:08:41.811Z,99569.94
2023-02-12T07:11:08.466Z,99569.94
2023-02-12T07:13:35.432Z,99567.38
2023-02-12T07:16:09.803Z,99561.00
2023-02-12T07:18:37.356Z,99561.16
2023-02-12T07:21:05.491Z,99557.19
2023-02-12T07:23:32.690Z,99562.47
2023-02-12T07:26:01.863Z,99563.72
2023-02-12T07:28:28.322Z,99558.63
2023-02-12T07:30:54.835Z,99545.22
2023-02-12T07:33:21.377Z,99558.78
2023-02-12T07:35:47.926Z,99553.16
2023-02-12T07:38:14.521Z,99552.22
2023-02-12T07:40:41.158Z,99550.44
2023-02-12T07:43:07.779Z,99554.47
2023-02-12T07:45:34.158Z,99557.50
2023-02-12T07:48:00.732Z,99560.69
2023-02-12T07:50:27.352Z,99557.66
2023-02-12T07:52:53.927Z,99561.94
2023-02-12T07:55:20.540Z,99564.50
2023-02-12T07:57:46.901Z,99561.34
2023-02-12T08:00:13.926Z,99565.91
2023-02-12T08:02:40.929Z,99565.91
2023-02-12T08:05:07.936Z,99573.88
2023-02-12T08:07:34.593Z,99576.72
2023-02-12T08:10:00.896Z,99574.63
2023-02-12T08:12:27.225Z,99579.41
2023-02-12T08:14:54.565Z,99577.97
2023-02-12T08:17:21.172Z,99580.28
2023-02-12T08:19:47.724Z,99579.81
2023-02-12T08:22:14.417Z,99579.16
2023-02-12T08:24:41.001Z,99575.13
2023-02-12T08:27:07.459Z,99573.03
2023-02-12T08:29:34.034Z,99563.03
2023-02-12T08:32:03.110Z,99569.69
2023-02-12T08:34:33.222Z,99558.97
2023-02-12T08:37:00.858Z,99564.53
2023-02-12T08:39:30.195Z,99565.25
2023-02-12T08:41:58.145Z,99570.78
2023-02-12T08:44:26.498Z,99569.31
2023-02-12T08:46:53.819Z,99576.28
2023-02-12T08:49:23.134Z,99577.56
2023-02-12T08:51:52.108Z,99582.41
2023-02-12T08:54:24.000Z,99572.00
2023-02-12T08:56:50.947Z,99575.94
2023-02-12T08:59:17.922Z,99575.91
2023-02-12T09:01:45.131Z,99578.44
2023-02-12T09:04:17.704Z,99580.22
2023-02-12T09:06:45.477Z,99587.69
2023-02-12T09:09:13.474Z,99584.22
2023-02-12T09:11:40.499Z,99586.38
2023-02-12T09:14:11.140Z,99581.88
2023-02-12T09:16:40.480Z,99579.88
2023-02-12T09:19:07.572Z,99591.66
2023-02-12T09:21:34.116Z,99595.38
2023-02-12T09:24:02.142Z,99585.59
2023-02-12T09:26:28.767Z,99589.44
2023-02-12T09:28:55.289Z,99580.94
2023-02-12T09:31:27.132Z,99589.66
2023-02-12T09:33:56.248Z,99587.75
2023-02-12T09:36:22.602Z,99595.97
2023-02-12T09:38:49.984Z,99589.81
2023-02-12T09:41:34.629Z,99595.97
2023-02-12T09:44:16.763Z,99595.75
2023-02-12T09:46:48.425Z,99593.50
2023-02-12T09:49:24.224Z,99599.72
2023-02-12T09:51:54.934Z,99595.78
2023-02-12T09:54:26.228Z,99602.09
2023-02-12T09:57:00.505Z,99601.28
2023-02-12T09:59:27.043Z,99601.78
2023-02-12T10:01:53.705Z,99599.38
2023-02-12T10:04:20.624Z,99599.63
2023-02-12T10:06:56.789Z,99605.75
2023-02-12T10:09:35.077Z,99596.47
2023-02-12T10:12:12.404Z,99600.22
2023-02-12T10:14:45.836Z,99604.72
2023-02-12T10:17:45.233Z,99604.75
2023-02-12T10:20:59.959Z,99599.78
2023-02-12T10:23:48.634Z,99603.19
2023-02-12T10:26:29.841Z,99595.19
2023-02-12T10:29:05.633Z,99598.50
2023-02-12T10:31:37.314Z,99594.97
2023-02-12T10:34:22.850Z,99601.44
2023-02-12T10:36:54.283Z,99602.69
2023-02-12T10:39:24.390Z,99597.38
2023-02-12T10:42:11.708Z,99602.72
2023-02-12T10:44:38.317Z,99596.19
2023-02-12T10:47:05.027Z,99594.16
2023-02-12T10:49:33.106Z,99598.00
2023-02-12T10:52:05.605Z,99594.94
2023-02-12T10:54:42.159Z,99598.22
2023-02-12T10:57:17.216Z,99601.41
2023-02-12T10:59:45.740Z,99596.16
2023-02-12T11:02:38.550Z,99588.69
2023-02-12T11:05:25.350Z,99596.81
2023-02-12T11:07:52.290Z,99596.91
2023-02-12T11:10:31.962Z,99585.31
2023-02-12T11:13:02.203Z,99584.03
2023-02-12T11:15:51.737Z,99583.75
2023-02-12T11:18:27.836Z,99585.22
2023-02-12T11:21:01.720Z,99586.38
2023-02-12T11:23:34.389Z,99590.59
2023-02-12T11:26:19.169Z,99594.56
2023-02-12T11:28:57.566Z,99591.59
2023-02-12T11:31:29.200Z,99590.03
2023-02-12T11:34:14.107Z,99590.78
2023-02-12T11:36:45.807Z,99591.13
2023-02-12T11:39:21.471Z,99586.38
2023-02-12T11:41:53.280Z,99591.81
2023-02-12T11:44:24.604Z,99587.69
2023-02-12T11:46:58.714Z,99588.78
2023-02-12T11:49:39.440Z,99587.50
2023-02-12T11:52:06.932Z,99584.78
2023-02-12T11:54:42.881Z,99584.53
2023-02-12T11:57:43.754Z,99586.25
2023-02-12T12:00:37.394Z,99568.41
2023-02-12T12:03:15.259Z,99578.97
2023-02-12T12:05:48.569Z,99568.16
2023-02-12T12:08:29.730Z,99574.41
2023-02-12T12:11:15.385Z,99568.16
2023-02-12T12:13:51.096Z,99568.72
2023-02-12T12:16:58.167Z,99571.53
2023-02-12T12:19:54.197Z,99578.84
2023-02-12T12:22:45.802Z,99576.44
2023-02-12T12:25:27.318Z,99569.25
2023-02-12T12:28:08.316Z,99566.59
2023-02-12T12:30:43.632Z,99569.03
2023-02-12T12:33:35.299Z,99563.31
2023-02-12T12:36:18.657Z,99566.25
2023-02-12T12:39:10.390Z,99572.88
2023-02-12T12:41:59.048Z,99566.59
2023-02-12T12:44:52.677Z,99557.34
2023-02-12T12:48:04.124Z,99545.66
2023-02-12T12:50:58.696Z,99555.63
2023-02-12T12:53:46.883Z,99553.50
2023-02-12T12:56:36.130Z,99555.56
2023-02-12T12:59:30.542Z,99551.09
2023-02-12T13:02:35.069Z,99551.34
2023-02-12T13:05:19.328Z,99555.25
2023-02-12T13:08:08.746Z,99552.91
2023-02-12T13:10:47.428Z,99553.81
2023-02-12T13:13:26.522Z,99553.16
2023-02-12T13:16:11.343Z,99557.78
2023-02-12T13:18:52.746Z,99558.75
2023-02-12T13:21:28.660Z,99552.06
2023-02-12T13:24:13.855Z,99553.13
2023-02-12T13:26:55.128Z,99546.34
2023-02-12T13:29:21.766Z,99543.38
2023-02-12T13:32:14.777Z,99536.03
2023-02-12T13:34:44.126Z,99534.97
2023-02-12T13:37:17.709Z,99534.03
2023-02-12T13:39:47.933Z,99528.31
2023-02-12T13:42:26.620Z,99528.88
2023-02-12T13:45:16.612Z,99528.59
2023-02-12T13:48:03.952Z,99527.22
2023-02-12T13:50:41.924Z,99530.94
2023-02-12T13:53:27.249Z,99537.72
2023-02-12T13:56:10.100Z,99520.16
2023-02-12T13:58:41.938Z,99526.59
2023-02-12T14:01:30.820Z,99523.78
2023-02-12T14:04:14.849Z,99524.34
2023-02-12T14:06:59.761Z,99526.44
2023-02-12T14:09:50.235Z,99531.13
2023-02-12T14:12:30.824Z,99523.53
2023-02-12T14:15:31.371Z,99529.59
2023-02-12T14:18:29.607Z,99523.97
2023-02-12T14:21:17.242Z,99518.50
2023-02-12T14:23:46.184Z,99517.31
2023-02-12T14:26:15.087Z,99512.66
2023-02-12T14:28:49.118Z,99515.72
2023-02-12T14:31:18.781Z,99510.44
2023-02-12T14:33:53.542Z,99523.19
2023-02-12T14:36:42.838Z,99509.09
2023-02-12T14:39:22.458Z,99513.25
2023-02-12T14:41:57.393Z,99511.81
2023-02-12T14:44:23.962Z,99518.81
2023-02-12T14:46:52.458Z,99517.81
2023-02-12T14:49:26.970Z,99521.59
2023-02-12T14:52:02.459Z,99519.38
2023-02-12T14:54:37.203Z,99500.22
2023-02-12T14:57:09.613Z,99507.56
2023-02-12T14:59:40.851Z,99509.56
2023-02-12T15:02:14.280Z,99505.97
2023-02-12T15:04:45.499Z,99502.81
2023-02-12T15:07:17.554Z,99495.91
2023-02-12T15:09:52.503Z,99496.59
2023-02-12T15:12:26.619Z,99500.66
2023-02-12T15:15:05.799Z,99499.66
2023-02-12T15:17:39.560Z,99500.16
2023-02-12T15:20:32.356Z,99500.66
2023-02-12T15:22:58.877Z,99503.53
2023-02-12T15:25:28.534Z,99501.06
2023-02-12T15:27:59.647Z,99496.56
2023-02-12T15:30:29.490Z,99499.72
2023-02-12T15:32:58.412Z,99493.41
2023-02-12T15:35:44.069Z,99495.41
2023-02-12T15:38:20.742Z,99497.38
2023-02-12T15:40:55.621Z,99489.25
2023-02-12T15:43:22.195Z,99487.81
2023-02-12T15:45:52.656Z,99483.59
2023-02-12T15:48:21.728Z,99486.69
2023-02-12T15:50:58.284Z,99480.72
2023-02-12T15:53:28.228Z,99487.66
2023-02-12T15:55:55.374Z,99482.78
2023-02-12T15:58:48.428Z,99486.00
2023-02-12T16:01:20.988Z,99484.13
2023-02-12T16:03:59.363Z,99484.22
2023-02-12T16:06:28.039Z,99479.72
2023-02-12T16:09:16.703Z,99475.88
2023-02-12T16:11:45.448Z,99479.72
2023-02-12T16:14:26.249Z,99471.78
2023-02-12T16:16:55.116Z,99478.63
2023-02-12T16:19:29.963Z,99478.66
2023-02-12T16:22:08.352Z,99481.16
2023-02-12T16:24:40.506Z,99490.13
2023-02-12T16:27:24.671Z,99479.81
2023-02-12T16:30:04.272Z,99480.50
2023-02-12T16:32:41.716Z,99491.84
2023-02-12T16:35:11.214Z,99487.84
2023-02-12T16:37:37.526Z,99487.25
2023-02-12T16:40:13.194Z,99482.00
2023-02-12T16:42:56.466Z,99487.44
2023-02-12T16:45:29.921Z,99478.81
2023-02-12T16:48:23.511Z,99488.44
2023-02-12T16:50:57.984Z,99494.81
2023-02-12T16:53:24.269Z,99494.75
2023-02-12T16:55:51.224Z,99493.09
2023-02-12T16:58:17.927Z,99496.69
2023-02-12T17:00:44.913Z,99501.84
2023-02-12T17:03:13.753Z,99487.56
2023-02-12T17:05:42.818Z,99498.00
2023-02-12T17:08:23.335Z,99500.09
2023-02-12T17:10:50.119Z,99501.16
2023-02-12T17:13:17.862Z,99501.53
2023-02-12T17:16:01.919Z,99501.91
2023-02-12T17:18:28.722Z,99505.28
2023-02-12T17:20:59.445Z,99501.47
2023-02-12T17:23:26.758Z,99501.06
2023-02-12T17:25:53.209Z,99504.13
2023-02-12T17:28:19.971Z,99496.34
2023-02-12T17:30:46.686Z,99496.34
2023-02-12T17:33:13.271Z,99502.28
2023-02-12T17:35:40.508Z,99499.41
2023-02-12T17:38:07.651Z,99509.19
2023-02-12T17:40:38.683Z,99511.25
2023-02-12T17:43:06.096Z,99504.41
2023-02-12T17:45:32.967Z,99503.31
2023-02-12T17:47:59.519Z,99506.38
2023-02-12T17:50:26.241Z,99507.78
2023-02-12T17:52:52.830Z,99509.69
2023-02-12T17:55:19.491Z,99511.00
2023-02-12T17:57:46.128Z,99501.63
2023-02-12T18:00:13.461Z,99514.50
2023-02-12T18:02:40.112Z,99508.47
2023-02-12T18:05:07.169Z,99509.09
2023-02-12T18:07:34.972Z,99511.97
2023-02-12T18:10:01.817Z,99518.31
2023-02-12T18:12:30.940Z,99511.19
2023-02-12T18:14:58.913Z,99511.19
2023-02-12T18:17:26.033Z,99513.22
2023-02-12T18:19:53.084Z,99515.00
2023-02-12T18:22:20.287Z,99511.03
2023-02-12T18:24:47.182Z,99509.44
2023-02-12T18:27:14.641Z,99513.72
2023-02-12T18:29:41.585Z,99509.88
2023-02-12T18:32:08.388Z,99514.81
2023-02-12T18:34:34.966Z,99507.34
2023-02-12T18:37:01.502Z,99511.63
2023-02-12T18:39:29.037Z,99516.72
2023-02-12T18:41:55.441Z,99505.41
2023-02-12T18:44:22.973Z,99517.47
2023-02-12T18:46:49.558Z,99513.66
2023-02-12T18:49:16.541Z,99517.66
2023-02-12T18:51:42.950Z,99517.78
2023-02-12T18:54:13.333Z,99512.06
2023-02-12T18:56:43.848Z,99510.75
2023-02-12T18:59:12.980Z,99507.88
2023-02-12T19:01:39.949Z,99510.13
2023-02-12T19:04:09.393Z,99493.41
2023-02-12T19:06:43.918Z,99495.59
2023-02-12T19:09:11.856Z,99498.16
2023-02-12T19:11:38.489Z,99501.81
2023-02-12T19:14:05.152Z,99504.31
2023-02-12T19:16:33.407Z,99496.06
2023-02-12T19:19:01.437Z,99499.06
2023-02-12T19:21:28.349Z,99502.69
2023-02-12T19:24:00.622Z,99503.34
2023-02-12T19:26:29.112Z,99510.00
2023-02-12T19:28:57.036Z,99502.97
2023-02-12T19:31:29.446Z,99503.59
2023-02-12T19:34:02.492Z,99502.00
2023-02-12T19:36:32.906Z,99497.84
2023-02-12T19:38:59.791Z,99496.72
2023-02-12T19:41:28.199Z,99505.13
2023-02-12T19:44:00.682Z,99511.44
2023-02-12T19:46:30.208Z,99510.81
2023-02-12T19:49:02.097Z,99514.41
2023-02-12T19:51:30.222Z,99510.75
2023-02-12T19:54:02.196Z,99517.84
2023-02-12T19:56:29.061Z,99518.66
2023-02-12T19:58:57.696Z,99519.91
2023-02-12T20:01:25.191Z,99525.41
2023-02-12T20:03:51.638Z,99518.72
2023-02-12T20:06:23.872Z,99519.16
2023-02-12T20:08:53.646Z,99528.06
2023-02-12T20:11:23.177Z,99519.78
2023-02-12T20:13:50.206Z,99514.81
2023-02-12T20:16:20.162Z,99522.22
2023-02-12T20:18:52.462Z,99531.66
2023-02-12T20:21:25.072Z,99524.44
2023-02-12T20:23:52.004Z,99521.53
2023-02-12T20:26:19.968Z,99524.06
2023-02-12T20:28:47.220Z,99523.56
2023-02-12T20:31:22.870Z,99528.00
2023-02-12T20:33:54.636Z,99532.50
2023-02-12T20:36:21.371Z,99526.50
2023-02-12T20:38:52.432Z,99526.81
2023-02-12T20:41:19.009Z,99531.50
2023-02-12T20:43:45.702Z,99533.72
2023-02-12T20:46:15.274Z,99527.53
2023-02-12T20:48:42.087Z,99533.72
2023-02-12T20:51:14.487Z,99534.91
2023-02-12T20:53:42.411Z,99530.13
2023-02-12T20:56:12.202Z,99529.16
2023-02-12T20:58:40.309Z,99530.25
2023-02-12T21:01:13.125Z,99534.56
2023-02-12T21:03:40.324Z,99535.75
2023-02-12T21:06:07.274Z,99536.75
2023-02-12T21:08:36.896Z,99536.75
2023-02-12T21:11:15.565Z,99539.94
2023-02-12T21:13:53.920Z,99534.56
2023-02-12T21:16:34.711Z,99538.94
2023-02-12T21:19:01.264Z,99531.38
2023-02-12T21:21:30.436Z,99528.16
2023-02-12T21:23:59.317Z,99523.75
2023-02-12T21:26:28.124Z,99530.25
2023-02-12T21:28:57.181Z,99533.75
2023-02-12T21:31:30.423Z,99527.56
2023-02-12T21:33:59.023Z,99526.56
2023-02-12T21:36:28.500Z,99530.34
2023-02-12T21:38:55.685Z,99534.06
2023-02-12T21:41:24.633Z,99529.47
2023-02-12T21:43:57.860Z,99524.97
2023-02-12T21:46:25.350Z,99527.16
2023-02-12T21:48:52.264Z,99516.38
2023-02-12T21:51:25.775Z,99526.19
2023-02-12T21:53:54.430Z,99522.88
2023-02-12T21:56:21.637Z,99526.78
2023-02-12T21:58:49.130Z,99521.19
2023-02-12T22:01:18.684Z,99519.00
2023-02-12T22:03:45.249Z,99528.97
2023-02-12T22:06:13.707Z,99522.59
2023-02-12T22:08:40.492Z,99519.41
2023-02-12T22:11:10.017Z,99516.19
2023-02-12T22:13:37.617Z,99518.41
2023-02-12T22:16:13.533Z,99516.31
2023-02-12T22:18:41.210Z,99533.38
2023-02-12T22:21:11.958Z,99524.22
2023-02-12T22:23:40.503Z,99519.13
2023-02-12T22:26:08.111Z,99522.63
2023-02-12T22:28:39.080Z,99521.63
2023-02-12T22:31:08.410Z,99518.81
2023-02-12T22:33:35.170Z,99524.22
2023-02-12T22:36:05.268Z,99523.72
2023-02-12T22:38:39.203Z,99523.41
2023-02-12T22:41:07.634Z,99528.00
2023-02-12T22:43:35.955Z,99524.81
2023-02-12T22:46:02.574Z,99528.63
2023-02-12T22:48:29.584Z,99527.50
2023-02-12T22:50:58.445Z,99538.78
2023-02-12T22:53:26.004Z,99530.81
2023-02-12T22:55:53.089Z,99539.41
2023-02-12T22:58:19.772Z,99532.78
2023-02-12T23:00:48.012Z,99544.09
2023-02-12T23:03:14.659Z,99547.59
2023-02-12T23:05:41.289Z,99546.19
2023-02-12T23:08:07.856Z,99547.38
2023-02-12T23:10:34.468Z,99545.97
2023-02-12T23:13:03.055Z,99551.75
2023-02-12T23:15:30.906Z,99547.97
2023-02-12T23:17:57.626Z,99551.16
2023-02-12T23:20:24.449Z,99552.56
2023-02-12T23:22:51.076Z,99558.91
2023-02-12T23:25:17.421Z,99555.50
2023-02-12T23:27:43.953Z,99558.47
2023-02-12T23:30:11.061Z,99557.66
2023-02-12T23:32:37.642Z,99557.22
2023-02-12T23:35:04.563Z,99559.31
2023-02-12T23:37:30.846Z,99548.00
2023-02-12T23:39:57.407Z,99541.97
2023-02-12T23:42:24.021Z,99550.94
2023-02-12T23:44:50.493Z,99546.50
2023-02-12T23:47:17.077Z,99550.16
2023-02-12T23:49:43.648Z,99544.19
2023-02-12T23:52:10.234Z,99544.38
2023-02-12T23:54:36.882Z,99541.91
2023-02-12T23:57:03.494Z,99536.59
2023-02-12T23:59:30.128Z,99542.13
